createdAt,value
2022-08-10T00:00:17.351Z,1.55
2022-08-10T00:03:20.213Z,2.00
2022-08-10T00:06:22.871Z,1.77
2022-08-10T00:09:25.630Z,1.70
2022-08-10T00:12:53.562Z,2.12
2022-08-10T00:15:55.060Z,1.77
2022-08-10T00:18:58.019Z,1.90
2022-08-10T00:22:00.832Z,1.85
2022-08-10T00:25:04.499Z,1.70
2022-08-10T00:28:07.351Z,1.77
2022-08-10T00:31:09.864Z,1.75
2022-08-10T00:34:12.697Z,1.87
2022-08-10T00:37:17.387Z,2.00
2022-08-10T00:40:35.181Z,1.77
2022-08-10T00:43:40.598Z,1.70
2022-08-10T00:46:43.454Z,1.80
2022-08-10T00:49:46.252Z,1.90
2022-08-10T00:52:49.410Z,2.12
2022-08-10T00:57:15.244Z,1.80
2022-08-10T00:59:14.888Z,1.90
2022-08-10T01:02:17.433Z,2.10
2022-08-10T01:05:20.829Z,1.65
2022-08-10T01:08:45.770Z,1.70
2022-08-10T01:12:38.821Z,1.77
2022-08-10T01:15:32.689Z,1.80
2022-08-10T01:18:57.884Z,1.70
2022-08-10T01:22:38.911Z,2.15
2022-08-10T01:26:11.532Z,1.70
2022-08-10T01:29:32.599Z,1.90
2022-08-10T01:32:43.166Z,1.90
2022-08-10T01:35:54.701Z,2.00
2022-08-10T01:38:58.929Z,1.40
2022-08-10T01:42:02.522Z,1.87
2022-08-10T01:45:07.365Z,1.53
2022-08-10T01:48:33.474Z,1.60
2022-08-10T01:51:39.186Z,1.65
2022-08-10T01:54:42.154Z,1.73
2022-08-10T01:57:46.012Z,1.75
2022-08-10T02:00:51.341Z,1.80
2022-08-10T02:04:04.296Z,1.73
2022-08-10T02:07:11.461Z,1.35
2022-08-10T02:10:15.997Z,1.90
2022-08-10T02:13:19.615Z,1.90
2022-08-10T02:16:24.080Z,1.60
2022-08-10T02:19:28.210Z,1.52
2022-08-10T02:22:35.924Z,1.62
2022-08-10T02:25:43.767Z,1.80
2022-08-10T02:28:47.164Z,1.33
2022-08-10T02:31:49.816Z,2.20
2022-08-10T02:34:56.122Z,1.90
2022-08-10T02:38:05.374Z,1.67
2022-08-10T02:42:18.623Z,1.77
2022-08-10T02:45:27.175Z,1.90
2022-08-10T02:48:47.124Z,1.80
2022-08-10T02:52:07.051Z,1.75
2022-08-10T02:55:50.772Z,1.62
2022-08-10T02:58:59.504Z,1.73
2022-08-10T03:02:03.650Z,1.80
2022-08-10T03:05:24.270Z,1.97
2022-08-10T03:08:34.324Z,2.03
2022-08-10T03:12:35.733Z,1.62
2022-08-10T03:15:00.981Z,1.70
2022-08-10T03:18:05.613Z,1.77
2022-08-10T03:21:11.954Z,1.77
2022-08-10T03:24:30.289Z,1.70
2022-08-10T03:27:36.700Z,2.00
2022-08-10T03:30:40.099Z,1.50
2022-08-10T03:33:43.663Z,1.83
2022-08-10T03:36:46.438Z,1.80
2022-08-10T03:39:51.359Z,1.80
2022-08-10T03:42:54.454Z,2.10
2022-08-10T03:46:03.721Z,1.90
2022-08-10T03:49:07.197Z,2.08
2022-08-10T03:52:10.514Z,1.60
2022-08-10T03:55:13.069Z,1.90
2022-08-10T03:58:35.943Z,1.90
2022-08-10T04:02:45.762Z,1.85
2022-08-10T04:05:01.418Z,1.70
2022-08-10T04:08:04.644Z,1.97
2022-08-10T04:11:11.799Z,2.40
2022-08-10T04:14:38.492Z,2.33
2022-08-10T04:18:05.067Z,2.17
2022-08-10T04:21:04.914Z,2.20
2022-08-10T04:24:11.065Z,2.10
2022-08-10T04:27:30.130Z,2.67
2022-08-10T04:30:35.573Z,2.50
2022-08-10T04:33:40.497Z,2.15
2022-08-10T04:36:43.927Z,2.67
2022-08-10T04:39:46.744Z,2.10
2022-08-10T04:42:49.659Z,2.55
2022-08-10T04:45:52.172Z,2.55
2022-08-10T04:49:01.294Z,2.30
2022-08-10T04:52:04.909Z,2.95
2022-08-10T04:55:08.288Z,2.37
2022-08-10T04:58:11.010Z,2.58
2022-08-10T05:01:20.709Z,2.85
2022-08-10T05:04:38.413Z,2.50
2022-08-10T05:07:53.958Z,2.65
2022-08-10T05:10:59.714Z,2.70
2022-08-10T05:14:02.585Z,2.92
2022-08-10T05:17:05.215Z,3.10
2022-08-10T05:20:10.004Z,3.05
2022-08-10T05:23:12.541Z,3.20
2022-08-10T05:26:15.389Z,2.90
2022-08-10T05:29:17.973Z,2.80
2022-08-10T05:32:21.213Z,3.90
2022-08-10T05:35:24.094Z,4.40
2022-08-10T05:38:27.695Z,2.87
2022-08-10T05:41:30.590Z,2.70
2022-08-10T05:44:33.469Z,2.70
2022-08-10T05:48:54.750Z,3.30
2022-08-10T05:50:59.106Z,2.80
2022-08-10T05:54:06.726Z,2.90
2022-08-10T05:57:11.160Z,2.90
2022-08-10T06:00:37.082Z,2.20
2022-08-10T06:03:44.664Z,2.60
2022-08-10T06:06:47.943Z,3.00
2022-08-10T06:09:59.446Z,2.55
2022-08-10T06:13:34.196Z,2.70
2022-08-10T06:16:38.237Z,2.65
2022-08-10T06:19:41.930Z,2.40
2022-08-10T06:22:44.772Z,2.28
2022-08-10T06:26:08.366Z,1.70
2022-08-10T06:29:12.532Z,2.40
2022-08-10T06:32:15.425Z,2.00
2022-08-10T06:35:19.385Z,2.50
2022-08-10T06:38:24.548Z,1.80
2022-08-10T06:41:57.943Z,3.47
2022-08-10T06:44:56.987Z,2.10
2022-08-10T06:48:03.651Z,2.25
2022-08-10T06:51:15.855Z,2.33
2022-08-10T06:54:23.172Z,2.35
2022-08-10T06:57:28.248Z,1.75
2022-08-10T07:00:34.572Z,2.13
2022-08-10T07:03:44.430Z,1.73
2022-08-10T07:06:49.153Z,2.47
2022-08-10T07:09:52.004Z,2.10
2022-08-10T07:12:57.355Z,1.50
2022-08-10T07:16:00.848Z,1.90
2022-08-10T07:19:05.136Z,1.85
2022-08-10T07:22:09.313Z,1.60
2022-08-10T07:25:33.128Z,1.48
2022-08-10T07:28:35.943Z,1.85
2022-08-10T07:31:55.614Z,1.30
2022-08-10T07:35:00.799Z,1.48
2022-08-10T07:38:06.617Z,1.45
2022-08-10T07:41:09.830Z,2.45
2022-08-10T07:44:13.248Z,1.70
2022-08-10T07:47:20.168Z,1.60
2022-08-10T07:50:43.543Z,1.08
2022-08-10T07:53:51.246Z,1.60
2022-08-10T07:56:56.145Z,1.08
2022-08-10T08:00:02.306Z,1.05
2022-08-10T08:03:16.202Z,1.00
2022-08-10T08:06:19.274Z,1.23
2022-08-10T08:09:22.324Z,1.60
2022-08-10T08:12:25.646Z,1.10
2022-08-10T08:16:19.923Z,1.48
2022-08-10T08:19:24.093Z,1.03
2022-08-10T08:24:04.584Z,1.10
2022-08-10T08:25:41.942Z,1.40
2022-08-10T08:28:48.819Z,1.00
2022-08-10T08:32:01.244Z,1.02
2022-08-10T08:35:08.596Z,1.00
2022-08-10T08:38:31.224Z,1.20
2022-08-10T08:41:45.470Z,1.37
2022-08-10T08:44:51.039Z,1.42
2022-08-10T08:48:11.429Z,1.10
2022-08-10T08:52:07.929Z,1.23
2022-08-10T08:56:03.611Z,1.17
2022-08-10T08:58:52.437Z,1.00
2022-08-10T09:01:55.406Z,1.00
2022-08-10T09:05:19.906Z,1.23
2022-08-10T09:08:51.485Z,0.60
2022-08-10T09:12:08.553Z,0.98
2022-08-10T09:15:40.402Z,1.10
2022-08-10T09:18:52.697Z,0.90
2022-08-10T09:22:14.527Z,1.10
2022-08-10T09:25:26.828Z,0.67
2022-08-10T09:28:37.188Z,1.00
2022-08-10T09:35:43.279Z,1.15
2022-08-10T09:36:21.931Z,0.88
2022-08-10T09:40:06.893Z,1.23
2022-08-10T09:43:25.146Z,0.50
2022-08-10T09:47:10.265Z,0.73
2022-08-10T09:51:05.390Z,0.80
2022-08-10T09:54:34.544Z,0.57
2022-08-10T09:57:56.998Z,0.95
2022-08-10T10:01:58.225Z,0.90
2022-08-10T10:04:37.993Z,0.93
2022-08-10T10:07:46.278Z,0.95
2022-08-10T10:11:17.273Z,0.90
2022-08-10T10:14:56.346Z,0.98
2022-08-10T10:18:10.817Z,0.60
2022-08-10T10:21:24.240Z,0.88
2022-08-10T10:25:01.279Z,0.88
2022-08-10T10:32:34.788Z,0.80
2022-08-10T10:35:52.959Z,1.10
2022-08-10T10:38:58.612Z,0.80
2022-08-10T10:42:18.595Z,0.90
2022-08-10T10:45:50.702Z,0.70
2022-08-10T10:48:59.435Z,0.98
2022-08-10T10:52:15.195Z,0.80
2022-08-10T10:56:13.717Z,0.70
2022-08-10T10:59:02.679Z,1.10
2022-08-10T11:02:43.567Z,0.65
2022-08-10T11:06:03.436Z,0.93
2022-08-10T11:10:05.498Z,1.00
2022-08-10T11:12:45.804Z,0.90
2022-08-10T11:16:04.166Z,0.98
2022-08-10T11:19:20.148Z,0.93
2022-08-10T11:22:30.524Z,0.90
2022-08-10T11:25:43.215Z,0.70
2022-08-10T11:28:51.905Z,0.70
2022-08-10T11:32:10.204Z,1.00
2022-08-10T11:36:01.718Z,0.85
2022-08-10T11:39:16.596Z,0.98
2022-08-10T11:42:36.344Z,0.90
2022-08-10T11:45:52.484Z,0.80
2022-08-10T11:49:10.525Z,0.90
2022-08-10T11:52:50.840Z,1.00
2022-08-10T11:55:58.956Z,1.00
2022-08-10T11:59:20.400Z,0.70
2022-08-10T12:02:26.524Z,0.93
2022-08-10T12:05:54.364Z,1.00
2022-08-10T12:10:06.980Z,1.10
2022-08-10T12:12:17.624Z,1.00
2022-08-10T12:15:28.872Z,0.90
2022-08-10T12:18:36.823Z,1.12
2022-08-10T12:21:47.222Z,0.80
2022-08-10T12:24:55.805Z,1.00
2022-08-10T12:28:07.866Z,1.00
2022-08-10T12:31:12.156Z,1.10
2022-08-10T12:34:31.305Z,0.82
2022-08-10T12:38:01.994Z,1.20
2022-08-10T12:41:09.176Z,1.33
2022-08-10T12:44:41.690Z,0.93
2022-08-10T12:47:53.567Z,1.20
2022-08-10T12:51:00.054Z,1.17
2022-08-10T12:54:14.790Z,1.02
2022-08-10T12:57:21.721Z,0.82
2022-08-10T13:00:30.519Z,1.02
2022-08-10T13:04:21.707Z,1.03
2022-08-10T13:07:00.644Z,1.00
2022-08-10T13:10:06.298Z,1.42
2022-08-10T13:13:09.359Z,1.23
2022-08-10T13:16:12.457Z,1.20
2022-08-10T13:19:16.871Z,1.00
2022-08-10T13:22:20.423Z,1.15
2022-08-10T13:25:32.617Z,1.02
2022-08-10T13:28:47.458Z,1.23
2022-08-10T13:32:03.865Z,1.10
2022-08-10T13:35:14.787Z,1.30
2022-08-10T13:38:20.707Z,1.23
2022-08-10T13:41:28.882Z,0.88
2022-08-10T13:44:34.380Z,1.12
2022-08-10T13:47:48.711Z,1.08
2022-08-10T13:50:58.372Z,0.77
2022-08-10T13:54:02.361Z,0.70
2022-08-10T13:57:05.438Z,1.30
2022-08-10T14:00:33.634Z,1.20
2022-08-10T14:03:36.057Z,1.15
2022-08-10T14:06:40.353Z,1.07
2022-08-10T14:09:43.770Z,1.17
2022-08-10T14:12:47.206Z,0.90
2022-08-10T14:15:50.594Z,0.80
2022-08-10T14:18:57.119Z,0.93
2022-08-10T14:22:00.067Z,0.87
2022-08-10T14:25:09.474Z,0.65
2022-08-10T14:28:13.732Z,1.10
2022-08-10T14:31:22.319Z,0.98
2022-08-10T14:36:20.990Z,1.05
2022-08-10T14:37:59.054Z,1.30
2022-08-10T14:41:04.707Z,0.80
2022-08-10T14:44:10.030Z,0.98
2022-08-10T14:47:51.268Z,0.95
2022-08-10T14:50:38.096Z,0.80
2022-08-10T14:54:01.215Z,1.00
2022-08-10T14:57:10.863Z,1.10
2022-08-10T15:00:30.867Z,0.85
2022-08-10T15:03:58.739Z,1.00
2022-08-10T15:07:11.955Z,0.90
2022-08-10T15:10:21.953Z,0.60
2022-08-10T15:13:34.274Z,1.27
2022-08-10T15:16:38.049Z,1.10
2022-08-10T15:20:02.909Z,1.00
2022-08-10T15:23:30.975Z,1.20
2022-08-10T15:26:33.402Z,0.70
2022-08-10T15:29:36.996Z,0.52
2022-08-10T15:33:50.580Z,0.88
2022-08-10T15:37:40.485Z,0.60
2022-08-10T15:40:50.560Z,1.00
2022-08-10T15:43:54.849Z,1.00
2022-08-10T15:47:02.417Z,0.75
2022-08-10T15:50:08.944Z,1.00
2022-08-10T15:53:18.294Z,1.05
2022-08-10T15:56:31.489Z,1.17
2022-08-10T15:59:41.494Z,0.83
2022-08-10T16:02:58.216Z,1.10
2022-08-10T16:06:03.341Z,1.00
2022-08-10T16:10:22.307Z,0.90
2022-08-10T16:12:40.820Z,1.00
2022-08-10T16:15:51.640Z,1.00
2022-08-10T16:18:54.685Z,1.00
2022-08-10T16:22:00.699Z,2.08
2022-08-10T16:25:12.339Z,0.90
2022-08-10T16:28:22.945Z,1.17
2022-08-10T16:31:28.415Z,1.17
2022-08-10T16:34:33.140Z,1.00
2022-08-10T16:37:57.988Z,1.30
2022-08-10T16:41:00.518Z,0.88
2022-08-10T16:44:04.585Z,1.10
2022-08-10T16:47:08.292Z,0.93
2022-08-10T16:50:11.721Z,0.90
2022-08-10T16:53:16.435Z,1.10
2022-08-10T16:56:33.808Z,0.93
2022-08-10T16:59:38.454Z,1.00
2022-08-10T17:02:46.888Z,0.90
2022-08-10T17:06:09.698Z,1.00
2022-08-10T17:09:20.413Z,1.10
2022-08-10T17:12:27.488Z,1.20
2022-08-10T17:15:30.367Z,1.17
2022-08-10T17:18:42.385Z,1.30
2022-08-10T17:22:00.837Z,0.90
2022-08-10T17:25:08.472Z,1.02
2022-08-10T17:28:12.380Z,0.98
2022-08-10T17:31:53.211Z,1.10
2022-08-10T17:34:49.721Z,1.10
2022-08-10T17:37:58.403Z,1.30
2022-08-10T17:41:12.648Z,1.00
2022-08-10T17:44:16.324Z,1.00
2022-08-10T17:47:19.440Z,1.30
2022-08-10T17:50:23.995Z,1.20
2022-08-10T17:53:40.718Z,1.10
2022-08-10T17:56:43.392Z,0.90
2022-08-10T17:59:47.502Z,1.20
2022-08-10T18:02:50.694Z,1.00
2022-08-10T18:06:01.989Z,0.90
2022-08-10T18:09:09.802Z,1.33
2022-08-10T18:12:17.996Z,1.10
2022-08-10T18:15:27.040Z,1.08
2022-08-10T18:18:31.405Z,1.10
2022-08-10T18:21:34.650Z,0.90
2022-08-10T18:24:39.128Z,1.30
2022-08-10T18:28:01.420Z,1.10
2022-08-10T18:31:05.921Z,1.00
2022-08-10T18:34:13.097Z,1.15
2022-08-10T18:37:21.247Z,1.00
2022-08-10T18:40:36.714Z,1.10
2022-08-10T18:44:06.538Z,1.30
2022-08-10T18:47:30.966Z,1.25
2022-08-10T18:50:47.830Z,1.27
2022-08-10T18:53:54.125Z,1.17
2022-08-10T18:56:58.751Z,1.17
2022-08-10T19:00:15.808Z,1.48
2022-08-10T19:03:25.665Z,1.15
2022-08-10T19:06:50.058Z,1.00
2022-08-10T19:10:09.009Z,1.13
2022-08-10T19:13:50.833Z,1.33
2022-08-10T19:17:16.975Z,1.40
2022-08-10T19:20:26.747Z,1.08
2022-08-10T19:23:39.879Z,1.90
2022-08-10T19:26:48.673Z,1.10
2022-08-10T19:30:13.381Z,1.48
2022-08-10T19:33:16.244Z,1.37
2022-08-10T19:36:26.786Z,1.20
2022-08-10T19:39:53.589Z,1.10
2022-08-10T19:43:09.253Z,1.33
2022-08-10T19:46:25.921Z,1.42
2022-08-10T19:50:05.263Z,1.67
2022-08-10T19:53:44.655Z,1.40
2022-08-10T19:56:55.748Z,1.30
2022-08-10T20:00:18.622Z,1.30
2022-08-10T20:03:23.579Z,1.23
2022-08-10T20:06:46.287Z,1.40
2022-08-10T20:09:56.730Z,1.25
2022-08-10T20:13:12.882Z,1.20
2022-08-10T20:16:34.912Z,1.23
2022-08-10T20:20:09.505Z,1.30
2022-08-10T20:23:22.753Z,1.60
2022-08-10T20:26:28.024Z,1.30
2022-08-10T20:29:57.811Z,1.70
2022-08-10T20:33:10.383Z,1.60
2022-08-10T20:36:26.837Z,1.60
2022-08-10T20:39:53.570Z,1.50
2022-08-10T20:43:13.685Z,1.45
2022-08-10T20:46:24.686Z,1.60
2022-08-10T20:49:58.006Z,1.47
2022-08-10T20:53:09.372Z,1.83
2022-08-10T20:56:34.305Z,1.80
2022-08-10T21:00:02.544Z,1.67
2022-08-10T21:03:24.798Z,1.90
2022-08-10T21:07:05.700Z,1.60
2022-08-10T21:10:42.704Z,1.85
2022-08-10T21:14:06.395Z,1.87
2022-08-10T21:17:17.674Z,1.50
2022-08-10T21:24:26.158Z,1.70
2022-08-10T21:27:59.598Z,1.80
2022-08-10T21:31:22.037Z,1.50
2022-08-10T21:34:31.777Z,2.15
2022-08-10T21:37:56.678Z,1.60
2022-08-10T21:41:57.361Z,1.70
2022-08-10T21:45:59.338Z,1.70
2022-08-10T21:49:24.585Z,1.58
2022-08-10T21:53:04.196Z,1.80
2022-08-10T21:56:41.354Z,2.00
2022-08-10T22:03:47.434Z,1.48
2022-08-10T22:07:09.279Z,1.75
2022-08-10T22:10:33.733Z,1.70
2022-08-10T22:14:05.082Z,1.42
2022-08-10T22:18:00.674Z,1.60
2022-08-10T22:21:28.467Z,1.87
2022-08-10T22:25:19.174Z,2.00
2022-08-10T22:28:40.568Z,1.83
2022-08-10T22:31:28.794Z,1.73
2022-08-10T22:32:11.106Z,1.80
2022-08-10T22:35:32.109Z,1.87
2022-08-10T22:39:12.946Z,2.08
2022-08-10T22:42:59.188Z,1.95
2022-08-10T22:46:32.457Z,1.87
2022-08-10T22:49:35.013Z,1.58
2022-08-10T22:53:03.003Z,2.10
2022-08-10T22:56:25.467Z,2.03
2022-08-10T22:59:30.554Z,2.10
2022-08-10T23:02:34.259Z,1.55
2022-08-10T23:05:39.453Z,2.12
2022-08-10T23:08:56.692Z,1.83
2022-08-10T23:12:01.376Z,1.85
2022-08-10T23:15:25.666Z,1.77
2022-08-10T23:18:58.206Z,2.08
2022-08-10T23:22:10.856Z,1.90
2022-08-10T23:25:19.381Z,2.03
2022-08-10T23:28:38.817Z,2.10
2022-08-10T23:32:00.713Z,1.90
2022-08-10T23:36:31.576Z,1.70
2022-08-10T23:38:37.488Z,1.75
2022-08-10T23:41:40.906Z,1.63
2022-08-10T23:44:46.445Z,2.12
2022-08-10T23:47:51.937Z,2.30
2022-08-10T23:50:59.312Z,1.92
2022-08-10T23:54:10.203Z,2.17
2022-08-10T23:57:17.298Z,2.03
